createdAt,value
2019-01-02T00:01:02.509Z,5.00
2019-01-02T00:03:43.240Z,5.00
2019-01-02T00:06:24.647Z,4.90
2019-01-02T00:09:06.184Z,4.90
2019-01-02T00:11:46.932Z,4.90
2019-01-02T00:14:27.464Z,4.90
2019-01-02T00:17:08.377Z,5.00
2019-01-02T00:19:49.291Z,5.00
2019-01-02T00:22:18.436Z,4.90
2019-01-02T00:25:07.052Z,5.00
2019-01-02T00:27:48.458Z,5.00
2019-01-02T00:30:29.291Z,5.00
2019-01-02T00:33:10.070Z,4.90
2019-01-02T00:35:51.283Z,5.00
2019-01-02T00:38:32.088Z,5.00
2019-01-02T00:41:13.484Z,5.10
2019-01-02T00:43:53.975Z,5.20
2019-01-02T00:46:34.564Z,5.20
2019-01-02T00:49:16.231Z,5.20
2019-01-02T00:51:57.019Z,5.20
2019-01-02T00:54:38.319Z,5.20
2019-01-02T00:57:19.175Z,5.10
2019-01-02T01:00:00.292Z,5.10
2019-01-02T01:02:41.025Z,5.10
2019-01-02T01:05:21.816Z,5.00
2019-01-02T01:08:02.585Z,5.10
2019-01-02T01:10:43.701Z,5.10
2019-01-02T01:13:24.137Z,5.00
2019-01-02T01:16:05.645Z,5.00
2019-01-02T01:18:46.594Z,5.00
2019-01-02T01:21:27.275Z,5.10
2019-01-02T01:24:08.726Z,4.90
2019-01-02T01:26:49.817Z,5.00
2019-01-02T01:29:30.529Z,5.00
2019-01-02T01:32:11.266Z,5.00
2019-01-02T01:34:52.938Z,4.90
2019-01-02T01:37:22.158Z,5.00
2019-01-02T01:40:10.752Z,4.90
2019-01-02T01:43:00.026Z,5.00
2019-01-02T01:45:48.730Z,4.90
2019-01-02T01:48:36.963Z,4.90
2019-01-02T01:51:25.532Z,4.90
2019-01-02T01:54:13.808Z,4.90
2019-01-02T01:57:02.035Z,4.90
2019-01-02T01:59:51.970Z,4.90
2019-01-02T02:02:41.897Z,4.90
2019-01-02T02:05:30.777Z,5.00
2019-01-02T02:08:19.282Z,4.90
2019-01-02T02:11:07.725Z,4.80
2019-01-02T02:13:55.946Z,4.80
2019-01-02T02:16:44.551Z,5.00
2019-01-02T02:19:34.479Z,5.00
2019-01-02T02:22:15.868Z,5.00
2019-01-02T02:24:56.674Z,4.90
2019-01-02T02:27:37.067Z,5.00
2019-01-02T02:30:18.812Z,4.90
2019-01-02T02:32:59.477Z,4.80
2019-01-02T02:35:40.611Z,4.80
2019-01-02T02:38:21.429Z,4.70
2019-01-02T02:40:51.021Z,4.70
2019-01-02T02:43:39.251Z,4.70
2019-01-02T02:46:27.433Z,4.70
2019-01-02T02:49:15.675Z,4.70
2019-01-02T02:52:03.914Z,4.60
2019-01-02T02:54:52.077Z,4.70
2019-01-02T02:57:40.301Z,4.70
2019-01-02T03:00:29.012Z,4.70
2019-01-02T03:03:17.210Z,4.60
2019-01-02T03:06:05.392Z,4.60
2019-01-02T03:08:53.584Z,4.70
2019-01-02T03:11:41.770Z,4.60
2019-01-02T03:14:29.983Z,4.60
2019-01-02T03:17:18.443Z,4.60
2019-01-02T03:20:09.619Z,4.60
2019-01-02T03:22:58.452Z,4.60
2019-01-02T03:25:47.010Z,4.60
2019-01-02T03:28:36.926Z,4.60
2019-01-02T03:31:19.780Z,4.60
2019-01-02T03:34:00.796Z,4.50
2019-01-02T03:36:41.386Z,4.50
2019-01-02T03:39:22.509Z,4.50
2019-01-02T03:42:02.934Z,4.40
2019-01-02T03:44:32.029Z,4.50
2019-01-02T03:47:20.210Z,4.50
2019-01-02T03:50:09.543Z,4.50
2019-01-02T03:52:57.734Z,4.60
2019-01-02T03:55:45.956Z,4.50
2019-01-02T03:58:34.133Z,4.50
2019-01-02T04:01:22.335Z,4.50
2019-01-02T04:04:10.539Z,4.60
2019-01-02T04:06:58.750Z,4.60
2019-01-02T04:09:46.949Z,4.60
2019-01-02T04:12:35.138Z,4.60
2019-01-02T04:15:23.347Z,4.60
2019-01-02T04:18:11.802Z,4.60
2019-01-02T04:21:00.269Z,4.60
2019-01-02T04:23:48.440Z,4.60
2019-01-02T04:26:17.540Z,4.60
2019-01-02T04:29:06.057Z,4.50
2019-01-02T04:31:54.512Z,4.60
2019-01-02T04:34:42.787Z,4.50
2019-01-02T04:37:31.505Z,4.50
2019-01-02T04:40:12.697Z,4.50
2019-01-02T04:45:35.905Z,4.50
2019-01-02T04:48:16.934Z,4.60
2019-01-02T04:50:58.374Z,4.70
2019-01-02T04:53:39.618Z,4.70
2019-01-02T04:56:20.946Z,4.60
2019-01-02T04:59:02.288Z,4.70
2019-01-02T05:01:42.956Z,4.70
2019-01-02T05:07:05.989Z,4.70
2019-01-02T05:09:47.404Z,4.60
2019-01-02T05:12:28.684Z,4.60
2019-01-02T05:15:09.998Z,4.50
2019-01-02T05:17:39.074Z,4.50
2019-01-02T05:20:13.339Z,4.40
2019-01-02T05:23:01.506Z,4.60
2019-01-02T05:25:49.690Z,4.60
2019-01-02T05:28:37.803Z,4.60
2019-01-02T05:31:07.190Z,4.50
2019-01-02T05:33:55.657Z,4.60
2019-01-02T05:36:44.119Z,4.60
2019-01-02T05:39:32.551Z,4.50
2019-01-02T05:45:08.400Z,4.50
2019-01-02T05:47:56.589Z,4.60
2019-01-02T05:50:45.057Z,4.70
2019-01-02T05:53:33.219Z,4.70
2019-01-02T05:56:21.415Z,4.80
2019-01-02T05:58:50.742Z,4.90
2019-01-02T06:01:39.202Z,4.90
2019-01-02T06:04:27.662Z,4.80
2019-01-02T06:07:09.180Z,4.80
2019-01-02T06:09:50.611Z,4.90
2019-01-02T06:12:32.203Z,4.90
2019-01-02T06:15:13.059Z,4.90
2019-01-02T06:17:54.474Z,4.80
2019-01-02T06:20:23.837Z,4.80
2019-01-02T06:23:12.477Z,4.90
2019-01-02T06:26:00.702Z,4.90
2019-01-02T06:28:49.152Z,4.80
2019-01-02T06:31:37.642Z,4.80
2019-01-02T06:34:26.294Z,4.80
2019-01-02T06:36:55.390Z,4.80
2019-01-02T06:39:43.646Z,4.70
2019-01-02T06:42:32.098Z,4.70
2019-01-02T06:45:20.284Z,4.80
2019-01-02T06:48:08.789Z,4.70
2019-01-02T06:50:56.963Z,4.70
2019-01-02T06:53:45.174Z,4.60
2019-01-02T06:56:33.647Z,4.60
2019-01-02T06:59:22.101Z,4.70
2019-01-02T07:01:58.444Z,4.70
2019-01-02T07:04:46.917Z,4.60
2019-01-02T07:07:31.229Z,4.70
2019-01-02T07:10:10.749Z,4.60
2019-01-02T07:12:51.718Z,4.70
2019-01-02T07:15:21.022Z,4.70
2019-01-02T07:18:09.624Z,4.80
2019-01-02T07:20:57.837Z,4.70
2019-01-02T07:23:46.057Z,4.70
2019-01-02T07:26:34.553Z,4.70
2019-01-02T07:29:22.803Z,4.80
2019-01-02T07:32:11.014Z,4.80
2019-01-02T07:35:18.369Z,4.90
2019-01-02T07:38:25.711Z,4.90
2019-01-02T07:41:33.268Z,5.00
2019-01-02T07:44:40.574Z,5.00
2019-01-02T07:47:34.749Z,5.00
2019-01-02T07:50:42.290Z,5.10
2019-01-02T07:53:49.631Z,5.10
2019-01-02T07:56:56.929Z,5.20
2019-01-02T08:00:04.287Z,5.20
2019-01-02T08:03:11.842Z,5.30
2019-01-02T08:05:53.064Z,5.30
2019-01-02T08:08:34.317Z,5.30
2019-01-02T08:11:36.309Z,5.30
2019-01-02T08:14:43.683Z,5.20
2019-01-02T08:17:35.726Z,5.20
2019-01-02T08:20:43.279Z,5.30
2019-01-02T08:23:50.581Z,5.30
2019-01-02T08:26:57.868Z,5.20
2019-01-02T08:30:05.195Z,5.30
2019-01-02T08:32:59.666Z,5.30
2019-01-02T08:36:07.247Z,5.40
2019-01-02T08:39:14.624Z,5.30
2019-01-02T08:42:21.927Z,5.20
2019-01-02T08:45:29.206Z,5.20
2019-01-02T08:48:24.498Z,5.10
2019-01-02T08:51:31.793Z,5.10
2019-01-02T08:54:12.686Z,5.20
2019-01-02T08:56:53.694Z,5.00
2019-01-02T08:59:35.074Z,5.10
2019-01-02T09:02:16.420Z,5.10
2019-01-02T09:04:57.032Z,5.20
2019-01-02T09:07:37.725Z,5.20
2019-01-02T09:10:18.674Z,5.20
2019-01-02T09:13:26.289Z,5.10
2019-01-02T09:16:33.599Z,5.10
2019-01-02T09:19:40.913Z,5.10
2019-01-02T09:22:37.312Z,5.10
2019-01-02T09:25:44.635Z,5.20
2019-01-02T09:28:51.910Z,5.40
2019-01-02T09:31:59.219Z,5.40
2019-01-02T09:35:06.536Z,5.40
2019-01-02T09:38:13.850Z,5.50
2019-01-02T09:41:21.158Z,5.60
2019-01-02T09:44:28.429Z,5.70
2019-01-02T09:47:35.745Z,5.70
2019-01-02T09:50:43.299Z,5.80
2019-01-02T09:53:50.578Z,5.80
2019-01-02T09:56:43.857Z,5.90
2019-01-02T09:59:51.406Z,6.00
2019-01-02T10:02:58.978Z,6.10
2019-01-02T10:06:07.806Z,6.00
2019-01-02T10:09:16.773Z,6.00
2019-01-02T10:12:08.659Z,5.90
2019-01-02T10:15:15.972Z,6.00
2019-01-02T10:18:23.507Z,6.00
2019-01-02T10:21:30.885Z,5.90
2019-01-02T10:24:34.284Z,5.80
2019-01-02T10:27:41.634Z,5.80
2019-01-02T10:30:49.002Z,5.80
2019-01-02T10:33:56.326Z,5.70
2019-01-02T10:36:37.209Z,5.80
2019-01-02T10:39:18.418Z,5.90
2019-01-02T10:41:59.040Z,5.70
2019-01-02T10:44:39.962Z,5.70
2019-01-02T10:47:20.950Z,5.70
2019-01-02T10:50:28.326Z,5.70
2019-01-02T10:53:35.642Z,5.70
2019-01-02T10:56:43.236Z,5.70
2019-01-02T10:59:50.567Z,5.70
2019-01-02T11:02:57.924Z,5.50
2019-01-02T11:06:05.224Z,5.40
2019-01-02T11:09:12.557Z,5.40
2019-01-02T11:12:20.150Z,5.40
2019-01-02T11:15:27.455Z,5.60
2019-01-02T11:18:34.839Z,5.80
2019-01-02T11:21:42.111Z,6.20
2019-01-02T11:24:49.687Z,6.70
2019-01-02T11:27:56.976Z,7.10
2019-01-02T11:30:51.748Z,7.30
2019-01-02T11:33:54.540Z,7.60
2019-01-02T11:36:50.570Z,7.80
2019-01-02T11:39:57.890Z,7.90
2019-01-02T11:43:05.194Z,7.80
2019-01-02T11:45:53.395Z,8.10
2019-01-02T11:48:41.838Z,8.40
2019-01-02T11:51:22.461Z,8.40
2019-01-02T11:54:03.509Z,8.40
2019-01-02T11:56:32.657Z,8.30
2019-01-02T11:59:20.884Z,8.30
2019-01-02T12:02:09.342Z,8.50
2019-01-02T12:04:57.572Z,8.70
2019-01-02T12:07:45.752Z,8.70
2019-01-02T12:10:33.993Z,8.80
2019-01-02T12:13:22.183Z,8.80
2019-01-02T12:16:10.639Z,8.80
2019-01-02T12:18:58.818Z,8.80
2019-01-02T12:21:47.022Z,8.80
2019-01-02T12:24:35.199Z,8.90
2019-01-02T12:27:04.566Z,9.20
2019-01-02T12:29:52.796Z,9.10
2019-01-02T12:32:40.973Z,8.90
2019-01-02T12:35:29.476Z,8.30
2019-01-02T12:38:17.624Z,8.10
2019-01-02T12:41:05.882Z,7.90
2019-01-02T12:43:54.066Z,7.70
2019-01-02T12:46:42.555Z,7.70
2019-01-02T12:49:23.672Z,7.90
2019-01-02T12:52:04.531Z,8.00
2019-01-02T12:54:45.320Z,7.90
2019-01-02T12:57:26.088Z,8.10
2019-01-02T13:00:07.441Z,8.20
2019-01-02T13:02:47.886Z,8.20
2019-01-02T13:05:29.355Z,8.20
2019-01-02T13:08:36.699Z,8.20
2019-01-02T13:11:31.875Z,8.10
2019-01-02T13:14:39.152Z,7.90
2019-01-02T13:17:46.538Z,7.80
2019-01-02T13:20:53.867Z,7.60
2019-01-02T13:24:01.404Z,7.50
2019-01-02T13:27:08.720Z,7.40
2019-01-02T13:30:15.990Z,7.60
2019-01-02T13:33:23.362Z,7.70
2019-01-02T13:36:30.689Z,7.70
2019-01-02T13:39:37.968Z,7.40
2019-01-02T13:42:45.319Z,7.20
2019-01-02T13:45:52.643Z,7.10
2019-01-02T13:48:59.919Z,7.20
2019-01-02T13:51:41.183Z,7.30
2019-01-02T13:54:22.586Z,7.30
2019-01-02T13:57:03.880Z,7.30
2019-01-02T13:59:44.607Z,7.40
2019-01-02T14:02:25.210Z,7.40
2019-01-02T14:05:05.995Z,7.40
2019-01-02T14:07:46.759Z,7.30
2019-01-02T14:10:27.682Z,7.20
2019-01-02T14:13:09.029Z,7.20
2019-01-02T14:15:50.414Z,7.30
2019-01-02T14:18:31.340Z,7.20
2019-01-02T14:21:12.303Z,7.30
2019-01-02T14:23:53.454Z,7.20
2019-01-02T14:26:34.162Z,7.30
2019-01-02T14:29:14.863Z,7.30
2019-01-02T14:31:55.981Z,7.20
2019-01-02T14:34:37.255Z,7.30
2019-01-02T14:37:18.063Z,7.30
2019-01-02T14:39:59.531Z,7.10
2019-01-02T14:42:40.108Z,7.20
2019-01-02T14:45:21.446Z,7.00
2019-01-02T14:51:01.052Z,6.60
2019-01-02T14:53:41.619Z,6.60
2019-01-02T14:56:22.679Z,6.50
2019-01-02T14:59:03.410Z,6.50
2019-01-02T15:01:32.838Z,6.50
2019-01-02T15:04:21.019Z,6.40
2019-01-02T15:07:09.246Z,6.30
2019-01-02T15:09:57.787Z,6.30
2019-01-02T15:12:26.967Z,6.20
2019-01-02T15:14:56.039Z,6.10
2019-01-02T15:17:44.519Z,6.10
2019-01-02T15:20:32.763Z,6.10
2019-01-02T15:23:01.831Z,6.10
2019-01-02T15:25:50.055Z,6.00
2019-01-02T15:28:38.229Z,5.90
2019-01-02T15:31:26.516Z,5.90
2019-01-02T15:34:14.962Z,5.80
2019-01-02T15:37:03.176Z,5.80
2019-01-02T15:39:32.501Z,5.80
2019-01-02T15:42:20.733Z,5.60
2019-01-02T15:45:08.907Z,5.70
2019-01-02T15:47:57.383Z,5.60
2019-01-02T15:50:26.762Z,5.60
2019-01-02T15:53:15.264Z,5.60
2019-01-02T15:56:03.584Z,5.40
2019-01-02T15:58:32.655Z,5.40
2019-01-02T16:01:21.130Z,5.40
2019-01-02T16:04:09.312Z,5.40
2019-01-02T16:06:57.635Z,5.40
2019-01-02T16:09:45.816Z,5.30
2019-01-02T16:12:15.010Z,5.30
2019-01-02T16:14:44.131Z,5.40
2019-01-02T16:17:32.350Z,5.30
2019-01-02T16:20:20.530Z,5.20
2019-01-02T16:22:49.901Z,5.30
2019-01-02T16:25:38.074Z,5.20
2019-01-02T16:28:26.324Z,5.20
2019-01-02T16:31:07.694Z,5.20
2019-01-02T16:33:36.778Z,5.20
2019-01-02T16:36:25.751Z,5.10
2019-01-02T16:39:13.923Z,5.10
2019-01-02T16:41:43.071Z,5.20
2019-01-02T16:44:31.247Z,5.10
2019-01-02T16:47:19.746Z,5.10
2019-01-02T16:50:08.554Z,5.10
2019-01-02T16:52:38.235Z,5.00
2019-01-02T16:55:26.458Z,5.00
2019-01-02T16:58:14.971Z,4.90
2019-01-02T17:01:03.582Z,5.00
2019-01-02T17:03:52.074Z,5.00
2019-01-02T17:06:22.161Z,4.90
2019-01-02T17:09:11.375Z,4.90
2019-01-02T17:11:59.884Z,4.80
2019-01-02T17:14:48.127Z,4.90
2019-01-02T17:17:17.266Z,4.80
2019-01-02T17:19:46.578Z,4.70
2019-01-02T17:22:34.819Z,4.70
2019-01-02T17:25:23.005Z,4.70
2019-01-02T17:28:11.553Z,4.70
2019-01-02T17:30:52.800Z,4.60
2019-01-02T17:33:34.004Z,4.60
2019-01-02T17:36:15.193Z,4.50
2019-01-02T17:38:56.092Z,4.60
2019-01-02T17:41:37.333Z,4.50
2019-01-02T17:44:17.984Z,4.60
2019-01-02T17:46:58.651Z,4.50
2019-01-02T17:49:39.481Z,4.50
2019-01-02T17:52:20.751Z,4.40
2019-01-02T17:55:01.323Z,4.40
2019-01-02T17:57:42.731Z,4.40
2019-01-02T18:00:24.360Z,4.40
2019-01-02T18:03:04.883Z,4.50
2019-01-02T18:05:45.864Z,4.60
2019-01-02T18:08:26.806Z,4.40
2019-01-02T18:11:07.436Z,4.30
2019-01-02T18:13:48.706Z,4.20
2019-01-02T18:16:29.546Z,4.20
2019-01-02T18:19:10.343Z,4.30
2019-01-02T18:21:51.997Z,4.30
2019-01-02T18:24:31.291Z,4.40
2019-01-02T18:27:19.519Z,4.40
2019-01-02T18:32:57.201Z,4.30
2019-01-02T18:35:45.674Z,4.20
2019-01-02T18:38:33.874Z,4.30
2019-01-02T18:41:03.108Z,4.30
2019-01-02T18:43:32.446Z,4.30
2019-01-02T18:46:20.916Z,4.30
2019-01-02T18:49:09.697Z,4.20
2019-01-02T18:51:39.020Z,4.30
2019-01-02T18:54:27.242Z,4.30
2019-01-02T18:57:15.407Z,4.30
2019-01-02T19:00:06.364Z,4.10
2019-01-02T19:02:53.762Z,4.00
2019-01-02T19:05:42.236Z,4.10
2019-01-02T19:08:30.409Z,4.10
2019-01-02T19:11:18.930Z,4.10
2019-01-02T19:14:07.154Z,3.90
2019-01-02T19:16:55.863Z,3.70
2019-01-02T19:19:44.104Z,3.70
2019-01-02T19:22:13.402Z,3.70
2019-01-02T19:25:01.628Z,3.60
2019-01-02T19:27:49.790Z,3.60
2019-01-02T19:30:38.026Z,3.60
2019-01-02T19:33:26.211Z,3.50
2019-01-02T19:36:14.431Z,3.40
2019-01-02T19:39:02.802Z,3.30
2019-01-02T19:45:02.836Z,3.30
2019-01-02T19:47:51.154Z,3.20
2019-01-02T19:50:39.428Z,3.20
2019-01-02T19:53:27.683Z,3.20
2019-01-02T19:56:16.205Z,3.30
2019-01-02T19:59:04.533Z,3.40
2019-01-02T20:01:53.139Z,3.40
2019-01-02T20:04:41.681Z,3.40
2019-01-02T20:07:30.166Z,3.40
2019-01-02T20:10:18.772Z,3.30
2019-01-02T20:12:59.292Z,3.20
2019-01-02T20:15:40.129Z,3.00
2019-01-02T20:18:20.834Z,2.90
2019-01-02T20:21:02.783Z,2.90
2019-01-02T20:26:31.533Z,3.00
2019-01-02T20:29:09.297Z,3.10
2019-01-02T20:31:49.757Z,2.90
2019-01-02T20:34:19.270Z,2.90
2019-01-02T20:37:07.835Z,2.70
2019-01-02T20:39:56.953Z,2.60
2019-01-02T20:42:45.596Z,2.50
2019-01-02T20:45:34.129Z,2.60
2019-01-02T20:48:15.531Z,2.60
2019-01-02T20:53:38.596Z,2.60
2019-01-02T20:56:20.021Z,2.60
2019-01-02T20:59:00.678Z,2.60
2019-01-02T21:04:24.037Z,2.60
2019-01-02T21:07:04.701Z,2.70
2019-01-02T21:09:45.921Z,2.70
2019-01-02T21:15:09.883Z,2.70
2019-01-02T21:17:50.810Z,2.70
2019-01-02T21:20:31.376Z,2.70
2019-01-02T21:23:12.937Z,2.70
2019-01-02T21:25:54.068Z,2.60
2019-01-02T21:28:34.796Z,2.60
2019-01-02T21:31:16.146Z,2.60
2019-01-02T21:33:57.361Z,2.60
2019-01-02T21:36:38.143Z,2.60
2019-01-02T21:39:19.140Z,2.50
2019-01-02T21:42:00.309Z,2.50
2019-01-02T21:44:41.316Z,2.50
2019-01-02T21:47:10.726Z,2.50
2019-01-02T21:49:59.087Z,2.50
2019-01-02T21:52:47.538Z,2.50
2019-01-02T21:55:35.789Z,2.50
2019-01-02T21:58:23.977Z,2.50
2019-01-02T22:01:12.203Z,2.30
2019-01-02T22:04:00.714Z,2.40
2019-01-02T22:06:49.323Z,2.20
2019-01-02T22:09:37.567Z,2.20
2019-01-02T22:12:26.164Z,2.10
2019-01-02T22:15:14.402Z,1.90
2019-01-02T22:18:02.591Z,1.80
2019-01-02T22:20:50.818Z,1.70
2019-01-02T22:23:39.547Z,1.70
2019-01-02T22:26:27.754Z,1.50
2019-01-02T22:29:08.923Z,1.50
2019-01-02T22:31:50.203Z,1.40
2019-01-02T22:34:30.978Z,1.50
2019-01-02T22:39:43.354Z,1.40
2019-01-02T22:42:31.550Z,1.40
2019-01-02T22:45:19.805Z,1.30
2019-01-02T22:48:08.855Z,1.30
2019-01-02T22:50:57.050Z,1.30
2019-01-02T22:53:45.259Z,1.40
2019-01-02T22:56:33.456Z,1.50
2019-01-02T22:59:21.707Z,1.30
2019-01-02T23:02:28.928Z,1.30
2019-01-02T23:05:36.158Z,1.30
2019-01-02T23:08:43.358Z,1.20
2019-01-02T23:11:50.897Z,1.20
2019-01-02T23:14:50.434Z,1.30
2019-01-02T23:17:57.642Z,1.20
2019-01-02T23:21:05.148Z,1.20
2019-01-02T23:24:10.503Z,1.20
2019-01-02T23:27:17.987Z,1.10
2019-01-02T23:30:06.124Z,1.10
2019-01-02T23:33:14.046Z,0.90
2019-01-02T23:36:21.277Z,0.90
2019-01-02T23:39:28.487Z,1.00
2019-01-02T23:42:30.927Z,0.90
2019-01-02T23:45:38.426Z,1.00
2019-01-02T23:48:45.907Z,0.90
2019-01-02T23:51:53.150Z,0.80
2019-01-02T23:55:00.364Z,0.80
2019-01-02T23:58:07.846Z,0.80
